Time;durP1;ratioP1;P1;durP2;ratioP2;P2;SDS_P1;SDS_P2;PMS_P1;PMS_P2;Temp;Humidity;BMP_temperature;BMP_pressure;BME280_temperature;BME280_humidity;BME280_pressure;Samples;Min_cycle;Max_cycle;Signal;HPM_P1;HPM_P2
2021/12/06 00:00:59;;;;;;;;;;;4.50;99.90;;;;;;4964030;28;20041;-69
2021/12/06 00:03:33;;;;;;;12.60;6.72;;;4.40;99.90;;;;;;4963355;28;19929;-67
2021/12/06 00:06:18;;;;;;;10.30;6.35;;;4.40;99.90;;;;;;4981000;28;20029;-67
2021/12/06 00:08:44;;;;;;;10.48;7.35;;;4.40;99.90;;;;;;4980988;28;20073;-66
2021/12/06 00:11:13;;;;;;;9.70;6.47;;;4.40;99.90;;;;;;4981030;28;20030;-66
2021/12/06 00:13:42;;;;;;;8.52;6.38;;;4.40;99.90;;;;;;4963360;28;20023;-68
2021/12/06 00:16:13;;;;;;;9.15;6.18;;;4.40;99.90;;;;;;4963354;28;20077;-67
2021/12/06 00:18:39;;;;;;;9.38;5.78;;;4.40;99.90;;;;;;4963219;28;20019;-68
2021/12/06 00:21:06;;;;;;;8.20;5.93;;;4.50;99.90;;;;;;4963505;28;20034;-66
2021/12/06 00:23:32;;;;;;;11.10;6.00;;;4.50;99.90;;;;;;4980361;28;20285;-66
2021/12/06 00:25:58;;;;;;;10.80;6.35;;;4.40;99.90;;;;;;4963431;28;20022;-67
2021/12/06 00:28:24;;;;;;;8.43;5.50;;;4.40;99.90;;;;;;4963087;28;20018;-69
2021/12/06 00:30:52;;;;;;;9.15;6.13;;;4.30;99.90;;;;;;4963449;28;20191;-67
2021/12/06 00:33:17;;;;;;;9.13;6.15;;;4.40;99.90;;;;;;4980312;28;20061;-67
2021/12/06 00:35:43;;;;;;;8.52;5.07;;;4.40;99.90;;;;;;4980420;28;20305;-67
2021/12/06 00:38:09;;;;;;;6.43;4.63;;;4.40;99.90;;;;;;4963262;28;20019;-67
2021/12/06 00:40:42;;;;;;;6.25;4.45;;;4.40;99.90;;;;;;4980006;28;20298;-67
2021/12/06 00:43:08;;;;;;;8.90;5.32;;;4.30;99.90;;;;;;4980618;28;20046;-68
2021/12/06 00:45:34;;;;;;;7.80;5.00;;;4.30;99.90;;;;;;4962268;28;20019;-69
2021/12/06 00:48:00;;;;;;;6.68;4.30;;;4.30;99.90;;;;;;4963126;28;20114;-67
2021/12/06 00:50:32;;;;;;;6.07;4.32;;;4.30;99.90;;;;;;4979930;28;20033;-67
2021/12/06 00:52:58;;;;;;;5.40;3.90;;;4.30;99.90;;;;;;4980380;28;20130;-68
2021/12/06 00:55:24;;;;;;;5.82;4.07;;;4.20;99.90;;;;;;4962257;28;20324;-67
2021/12/06 00:57:52;;;;;;;5.03;3.42;;;4.30;99.90;;;;;;4980378;28;20229;-67
2021/12/06 01:00:34;;;;;;;6.60;3.70;;;4.30;99.90;;;;;;4962373;28;20118;-66
2021/12/06 01:03:02;;;;;;;4.40;3.22;;;4.20;99.90;;;;;;4980433;28;20034;-66
2021/12/06 01:05:27;;;;;;;3.70;3.05;;;4.10;99.90;;;;;;4979510;28;20051;-66
2021/12/06 01:07:56;;;;;;;4.55;2.95;;;4.10;99.90;;;;;;4980308;28;20229;-66
2021/12/06 01:10:28;;;;;;;4.72;3.05;;;4.10;99.90;;;;;;4979118;28;20023;-68
2021/12/06 01:12:54;;;;;;;3.92;2.55;;;4.10;99.90;;;;;;4980443;28;20037;-66
2021/12/06 01:15:20;;;;;;;3.63;2.78;;;4.10;99.90;;;;;;4979328;28;20018;-67
2021/12/06 01:17:47;;;;;;;3.45;2.25;;;4.10;99.90;;;;;;4962731;28;20061;-66
2021/12/06 01:20:18;;;;;;;3.17;2.33;;;4.00;99.90;;;;;;4962439;28;20312;-66
2021/12/06 01:22:50;;;;;;;3.10;2.35;;;4.10;99.90;;;;;;4962893;28;20019;-66
2021/12/06 01:25:31;;;;;;;2.53;1.85;;;4.10;99.90;;;;;;4979497;28;20086;-67
2021/12/06 01:41:07;;;;;;;4.47;2.25;;;4.10;99.90;;;;;;4979693;28;20046;-67
2021/12/06 01:43:33;;;;;;;2.38;1.67;;;4.00;99.90;;;;;;4962122;28;20174;-67
2021/12/06 01:45:59;;;;;;;2.30;1.70;;;4.00;99.90;;;;;;4962323;28;20096;-67
2021/12/06 01:48:25;;;;;;;3.55;2.10;;;4.00;99.90;;;;;;4980273;28;20034;-68
2021/12/06 01:50:50;;;;;;;2.85;2.00;;;4.00;99.90;;;;;;4983850;28;20026;-67
2021/12/06 01:53:16;;;;;;;2.75;1.73;;;4.00;99.90;;;;;;4982948;28;20038;-67
2021/12/06 01:55:43;;;;;;;2.40;1.80;;;4.00;99.90;;;;;;4983137;28;20050;-67
2021/12/06 01:58:09;;;;;;;2.10;1.48;;;3.90;99.90;;;;;;4966154;28;20205;-67
2021/12/06 02:00:37;;;;;;;1.98;1.70;;;3.90;99.90;;;;;;4982772;28;20030;-67
2021/12/06 02:03:03;;;;;;;3.75;2.25;;;3.90;99.90;;;;;;4983659;28;20019;-66
2021/12/06 02:05:29;;;;;;;2.63;1.90;;;3.90;99.90;;;;;;4965275;28;20203;-67
2021/12/06 02:07:55;;;;;;;2.33;1.80;;;3.90;99.90;;;;;;4965952;28;20043;-67
2021/12/06 02:10:22;;;;;;;2.80;2.00;;;3.90;99.90;;;;;;4982714;28;20022;-67
2021/12/06 02:12:51;;;;;;;2.50;1.50;;;3.90;99.90;;;;;;4983276;28;20068;-67
2021/12/06 02:18:12;;;;;;;2.53;1.88;;;3.90;99.90;;;;;;4983189;28;20042;-67
2021/12/06 02:20:47;;;;;;;2.38;1.52;;;3.90;99.90;;;;;;4965111;28;20046;-66
2021/12/06 02:23:15;;;;;;;3.17;2.20;;;3.80;99.90;;;;;;4983218;28;20078;-66
2021/12/06 02:25:41;;;;;;;2.73;2.07;;;3.80;99.90;;;;;;4982758;28;20212;-66
2021/12/06 02:28:07;;;;;;;2.67;1.88;;;3.80;99.90;;;;;;4965809;28;20062;-69
2021/12/06 02:30:33;;;;;;;2.38;1.70;;;3.80;99.90;;;;;;4964780;28;20041;-68
2021/12/06 02:32:58;;;;;;;4.00;1.90;;;3.70;99.90;;;;;;4982933;28;20309;-67
2021/12/06 02:35:24;;;;;;;2.70;1.77;;;3.70;99.90;;;;;;4965039;28;20093;-67
2021/12/06 02:37:51;;;;;;;2.70;1.75;;;3.70;99.90;;;;;;4982853;28;20025;-67
2021/12/06 02:40:27;;;;;;;3.42;2.30;;;3.70;99.90;;;;;;4964947;28;20030;-70
2021/12/06 02:42:54;;;;;;;2.00;1.50;;;3.70;99.90;;;;;;4982971;28;20025;-66
2021/12/06 02:45:24;;;;;;;2.22;1.70;;;3.70;99.90;;;;;;4981975;28;20023;-66
2021/12/06 02:47:53;;;;;;;2.00;1.77;;;3.70;99.90;;;;;;4982207;28;20031;-66
2021/12/06 02:50:22;;;;;;;4.07;2.42;;;3.70;99.90;;;;;;4981978;28;20023;-66
2021/12/06 02:52:47;;;;;;;2.95;2.13;;;3.60;99.90;;;;;;4961708;28;20047;-67
2021/12/06 02:57:57;;;;;;;2.95;2.25;;;3.60;99.90;;;;;;4963133;28;20078;-66
2021/12/06 03:00:25;;;;;;;4.28;2.17;;;3.60;99.90;;;;;;4960007;28;20223;-66
2021/12/06 03:02:51;;;;;;;3.38;2.03;;;3.70;99.90;;;;;;4962947;28;20019;-67
2021/12/06 03:05:17;;;;;;;3.58;2.95;;;3.70;99.90;;;;;;4962229;28;20269;-67
2021/12/06 03:07:46;;;;;;;4.47;2.75;;;3.70;99.90;;;;;;4962727;29;20019;-67
2021/12/06 03:10:12;;;;;;;4.80;2.35;;;3.60;99.90;;;;;;4961829;29;20027;-66
2021/12/06 03:12:38;;;;;;;3.00;2.28;;;3.60;99.90;;;;;;4962433;28;20029;-67
2021/12/06 03:15:05;;;;;;;3.30;3.00;;;3.70;99.90;;;;;;4961441;29;20046;-68
2021/12/06 03:17:32;;;;;;;4.97;2.97;;;3.70;99.90;;;;;;4960770;29;20210;-68
2021/12/06 03:20:00;;;;;;;4.68;3.03;;;3.70;99.90;;;;;;4961231;29;20039;-66
2021/12/06 03:22:26;;;;;;;3.73;2.80;;;3.70;99.90;;;;;;4962214;28;20029;-66
2021/12/06 03:24:53;;;;;;;4.63;3.47;;;3.70;99.90;;;;;;4961056;29;20360;-66
2021/12/06 03:27:19;;;;;;;4.25;3.38;;;3.70;99.90;;;;;;4962120;28;20034;-66
2021/12/06 03:29:45;;;;;;;9.50;4.40;;;3.80;99.90;;;;;;4962537;28;20019;-67
2021/12/06 03:32:12;;;;;;;6.07;4.47;;;3.80;99.90;;;;;;4961303;29;20023;-67
2021/12/06 03:34:38;;;;;;;7.53;4.85;;;3.80;99.90;;;;;;4961804;28;20023;-67
2021/12/06 03:37:06;;;;;;;6.78;5.22;;;3.80;99.90;;;;;;4961348;29;20027;-66
2021/12/06 03:39:36;;;;;;;7.05;4.97;;;3.70;99.90;;;;;;4962152;28;20023;-66
2021/12/06 03:42:05;;;;;;;6.55;5.10;;;3.70;99.90;;;;;;4962446;28;20039;-66
2021/12/06 03:44:31;;;;;;;7.55;4.95;;;3.70;99.90;;;;;;4960308;29;20077;-67
2021/12/06 03:47:02;;;;;;;9.13;5.60;;;3.70;99.90;;;;;;4962347;29;20087;-71
2021/12/06 03:49:28;;;;;;;7.00;5.70;;;3.70;99.90;;;;;;4961343;28;20030;-67
2021/12/06 03:51:54;;;;;;;8.70;5.97;;;3.70;99.90;;;;;;4965557;28;20046;-66
2021/12/06 03:54:23;;;;;;;7.95;5.97;;;3.80;99.90;;;;;;4963531;28;20086;-66
2021/12/06 03:56:49;;;;;;;7.90;5.40;;;3.80;99.90;;;;;;4981528;28;20025;-68
2021/12/06 03:59:16;;;;;;;8.45;6.35;;;3.80;99.90;;;;;;4981727;28;20050;-67
2021/12/06 04:01:42;;;;;;;7.47;5.57;;;3.80;99.90;;;;;;4981193;28;20033;-68
2021/12/06 04:04:09;;;;;;;9.68;5.68;;;3.80;99.90;;;;;;4981271;28;20026;-67
2021/12/06 04:06:36;;;;;;;7.07;4.95;;;3.80;99.90;;;;;;4963389;28;20102;-66
2021/12/06 04:09:04;;;;;;;9.73;5.93;;;3.80;99.90;;;;;;4981043;28;20022;-68
2021/12/06 04:11:30;;;;;;;7.83;5.97;;;3.80;99.90;;;;;;4980319;28;20069;-67
2021/12/06 04:13:55;;;;;;;10.68;6.00;;;3.80;99.90;;;;;;4980890;28;20027;-67
2021/12/06 04:16:21;;;;;;;8.15;6.20;;;3.70;99.90;;;;;;4980254;28;20018;-67
2021/12/06 04:18:47;;;;;;;9.43;6.30;;;3.80;99.90;;;;;;4980370;28;20033;-70
2021/12/06 04:21:13;;;;;;;10.77;6.63;;;3.70;99.90;;;;;;4981141;28;20030;-68
2021/12/06 04:23:39;;;;;;;9.25;7.65;;;3.80;99.90;;;;;;4980158;28;20027;-68
2021/12/06 04:26:07;;;;;;;8.77;7.13;;;3.80;99.90;;;;;;4980840;28;20015;-67
2021/12/06 04:28:35;;;;;;;8.73;6.72;;;3.70;99.90;;;;;;4980458;28;20022;-68
2021/12/06 04:31:02;;;;;;;8.63;6.82;;;3.80;99.90;;;;;;4963538;28;20022;-68
2021/12/06 04:33:27;;;;;;;11.23;7.57;;;3.80;99.90;;;;;;4980108;28;20033;-68
2021/12/06 04:35:53;;;;;;;9.23;6.55;;;3.80;99.90;;;;;;4963395;28;20019;-67
2021/12/06 04:38:21;;;;;;;9.93;7.32;;;3.80;99.90;;;;;;4979810;28;20026;-67
2021/12/06 04:40:48;;;;;;;11.18;7.25;;;3.80;99.90;;;;;;4980369;28;20448;-66
2021/12/06 04:43:13;;;;;;;10.77;7.40;;;3.80;99.90;;;;;;4963416;28;20034;-66
2021/12/06 04:45:40;;;;;;;11.18;7.45;;;3.80;99.90;;;;;;4979758;28;20201;-67
2021/12/06 04:48:07;;;;;;;13.70;8.70;;;3.80;99.90;;;;;;4963076;28;20306;-66
2021/12/06 04:50:33;;;;;;;14.27;7.65;;;3.80;99.90;;;;;;4946679;28;20023;-66
2021/12/06 04:53:11;;;;;;;11.27;8.23;;;3.80;99.90;;;;;;4962871;28;20058;-67
2021/12/06 04:56:18;;;;;;;11.23;7.97;;;3.80;99.90;;;;;;4963069;28;20394;-69
2021/12/06 04:59:23;;;;;;;11.88;8.90;;;3.80;99.90;;;;;;4967671;28;20039;-67
2021/12/06 05:01:52;;;;;;;14.63;9.70;;;3.80;99.90;;;;;;4963045;28;20031;-67
2021/12/06 05:04:28;;;;;;;15.30;9.73;;;3.80;99.90;;;;;;4979767;28;20034;-67
2021/12/06 05:07:00;;;;;;;15.73;9.60;;;3.90;99.90;;;;;;4963281;28;20054;-67
2021/12/06 05:09:30;;;;;;;15.60;9.77;;;3.80;99.90;;;;;;4980049;28;20030;-67
2021/12/06 05:11:56;;;;;;;12.68;9.05;;;3.80;99.90;;;;;;4980636;28;20023;-67
2021/12/06 05:14:23;;;;;;;15.65;9.70;;;3.80;99.90;;;;;;4962608;28;20030;-68
2021/12/06 05:16:49;;;;;;;13.75;9.35;;;3.90;99.90;;;;;;4980427;28;20340;-67
2021/12/06 05:19:15;;;;;;;11.10;9.00;;;3.90;99.90;;;;;;4980050;28;20026;-66
2021/12/06 05:21:40;;;;;;;13.02;9.48;;;3.80;99.90;;;;;;4980177;28;20163;-66
2021/12/06 05:24:07;;;;;;;13.73;9.15;;;3.90;99.90;;;;;;4982635;28;20082;-66
2021/12/06 05:26:33;;;;;;;15.15;9.18;;;3.80;99.90;;;;;;4984586;28;20021;-67
2021/12/06 05:29:01;;;;;;;15.18;9.88;;;3.90;99.90;;;;;;4984257;28;20046;-67
2021/12/06 05:31:28;;;;;;;15.90;9.67;;;3.90;99.90;;;;;;4983826;28;20199;-68
2021/12/06 05:33:56;;;;;;;14.40;9.07;;;3.90;99.90;;;;;;4984090;28;20297;-66
2021/12/06 05:36:22;;;;;;;14.87;9.27;;;3.90;99.90;;;;;;4950723;28;20030;-67
2021/12/06 05:38:53;;;;;;;13.57;9.65;;;3.90;99.90;;;;;;4966711;28;20050;-67
2021/12/06 05:41:19;;;;;;;16.70;10.38;;;3.90;99.90;;;;;;4966230;28;20034;-66
2021/12/06 05:43:45;;;;;;;17.15;10.10;;;3.90;99.90;;;;;;4966796;28;20265;-67
2021/12/06 05:46:11;;;;;;;14.35;9.90;;;3.90;99.90;;;;;;4983482;28;20023;-68
2021/12/06 05:48:37;;;;;;;18.17;10.43;;;3.90;99.90;;;;;;4966626;28;20034;-68
2021/12/06 05:51:03;;;;;;;16.60;10.52;;;3.80;99.90;;;;;;4983815;28;20326;-67
2021/12/06 05:53:29;;;;;;;15.43;10.27;;;3.90;99.90;;;;;;4983518;28;20272;-69
2021/12/06 05:55:55;;;;;;;18.45;10.05;;;3.90;99.90;;;;;;4983585;28;20198;-66
2021/12/06 05:58:26;;;;;;;17.73;10.75;;;3.90;99.90;;;;;;4983225;28;20246;-67
2021/12/06 06:00:53;;;;;;;15.52;10.70;;;3.90;99.90;;;;;;4966245;28;20031;-66
2021/12/06 06:03:19;;;;;;;16.33;10.23;;;3.90;99.90;;;;;;4965877;28;20095;-67
2021/12/06 06:05:45;;;;;;;18.98;10.75;;;3.90;99.90;;;;;;4983488;28;20023;-67
2021/12/06 06:08:11;;;;;;;16.50;11.00;;;3.80;99.90;;;;;;4965933;28;20069;-66
2021/12/06 06:10:37;;;;;;;13.68;9.82;;;3.80;99.90;;;;;;4983211;28;20050;-69
2021/12/06 06:13:04;;;;;;;18.88;10.50;;;3.90;99.90;;;;;;4983518;28;20042;-67
2021/12/06 06:15:30;;;;;;;17.63;10.35;;;3.90;99.90;;;;;;4965572;28;20116;-67
2021/12/06 06:17:57;;;;;;;17.23;10.57;;;3.90;99.90;;;;;;4983362;28;20018;-66
2021/12/06 06:20:33;;;;;;;17.73;11.35;;;3.90;99.90;;;;;;4982543;28;20257;-66
2021/12/06 06:22:59;;;;;;;14.95;10.02;;;3.90;99.90;;;;;;4983410;28;20023;-67
2021/12/06 06:25:25;;;;;;;18.45;10.57;;;3.90;99.90;;;;;;4982820;28;20019;-67
2021/12/06 06:27:51;;;;;;;14.10;11.00;;;3.90;99.90;;;;;;4982880;28;20029;-69
2021/12/06 06:30:17;;;;;;;13.85;10.23;;;3.90;99.90;;;;;;4982461;28;20027;-69
2021/12/06 06:32:44;;;;;;;15.88;11.27;;;3.90;99.90;;;;;;4983027;28;20026;-67
2021/12/06 06:35:10;;;;;;;15.68;10.57;;;3.90;99.90;;;;;;4981934;28;20018;-67
2021/12/06 06:37:36;;;;;;;17.85;11.80;;;3.90;99.90;;;;;;4983275;28;20027;-68
2021/12/06 06:40:03;;;;;;;16.70;10.85;;;3.90;99.90;;;;;;4982758;28;20025;-67
2021/12/06 06:42:48;;;;;;;18.60;10.90;;;3.90;99.90;;;;;;4982306;28;20027;-67
2021/12/06 06:45:16;;;;;;;17.95;10.50;;;3.90;99.90;;;;;;4982066;28;20085;-67
2021/12/06 06:47:43;;;;;;;16.73;10.45;;;3.90;99.90;;;;;;4965677;28;20247;-67
2021/12/06 06:50:09;;;;;;;18.85;11.18;;;3.90;99.90;;;;;;4982123;28;20023;-69
2021/12/06 06:52:36;;;;;;;18.15;11.70;;;3.90;99.90;;;;;;4982586;28;20189;-66
2021/12/06 06:55:04;;;;;;;16.27;11.02;;;3.90;99.90;;;;;;4982626;28;20086;-66
2021/12/06 06:57:30;;;;;;;17.67;10.98;;;3.90;99.90;;;;;;4965244;28;20023;-67
2021/12/06 06:59:56;;;;;;;15.23;10.43;;;3.90;99.90;;;;;;4982516;28;20030;-67
2021/12/06 07:02:21;;;;;;;15.40;10.48;;;3.90;99.90;;;;;;4964628;28;20082;-66
2021/12/06 07:04:47;;;;;;;15.52;10.13;;;4.00;99.90;;;;;;4964867;28;20027;-67
2021/12/06 07:07:13;;;;;;;22.25;12.00;;;4.00;99.90;;;;;;4981831;28;20034;-67
2021/12/06 07:09:39;;;;;;;18.10;10.32;;;4.10;99.90;;;;;;4982448;28;20251;-67
2021/12/06 07:12:12;;;;;;;16.50;9.80;;;4.10;99.90;;;;;;4965272;28;20234;-68
2021/12/06 07:14:37;;;;;;;14.90;9.13;;;4.00;99.90;;;;;;4964961;28;20030;-69
2021/12/06 07:17:03;;;;;;;20.27;9.88;;;4.10;99.90;;;;;;4982515;28;20018;-66
2021/12/06 07:19:29;;;;;;;16.67;9.60;;;4.10;99.90;;;;;;4981694;28;20379;-66
2021/12/06 07:21:55;;;;;;;17.20;9.60;;;4.10;99.90;;;;;;4982385;28;20022;-67
2021/12/06 07:24:21;;;;;;;15.98;9.57;;;4.10;99.90;;;;;;4981282;28;20297;-67
2021/12/06 07:26:46;;;;;;;14.73;9.20;;;4.10;99.90;;;;;;4965043;28;20026;-68
2021/12/06 07:29:12;;;;;;;20.35;9.50;;;4.10;99.90;;;;;;4964308;28;20142;-67
2021/12/06 07:31:38;;;;;;;14.52;9.88;;;4.10;99.90;;;;;;4964617;28;20069;-68
2021/12/06 07:34:04;;;;;;;13.80;8.98;;;4.10;99.90;;;;;;4982099;28;20023;-67
2021/12/06 07:36:30;;;;;;;17.48;10.10;;;4.10;99.90;;;;;;4981573;28;20061;-67
2021/12/06 07:38:56;;;;;;;15.50;8.75;;;4.10;99.90;;;;;;4964542;28;20175;-66
2021/12/06 07:41:23;;;;;;;15.07;8.55;;;4.10;99.90;;;;;;4963861;28;20026;-67
2021/12/06 07:43:49;;;;;;;13.35;8.40;;;4.10;99.90;;;;;;4981375;28;20352;-67
2021/12/06 07:46:15;;;;;;;14.32;8.35;;;4.10;99.90;;;;;;4980790;28;20018;-67
2021/12/06 07:48:42;;;;;;;13.18;8.95;;;4.10;99.90;;;;;;4964399;28;20209;-67
2021/12/06 07:51:07;;;;;;;12.23;8.10;;;4.20;99.90;;;;;;4964253;28;20316;-67
2021/12/06 07:53:35;;;;;;;15.90;9.25;;;4.20;99.90;;;;;;4963699;28;20055;-67
2021/12/06 07:56:01;;;;;;;14.85;8.85;;;4.20;99.90;;;;;;4981803;28;20158;-67
2021/12/06 07:58:28;;;;;;;13.20;8.60;;;4.20;99.90;;;;;;4981120;28;20035;-68
2021/12/06 08:00:55;;;;;;;15.90;8.95;;;4.20;99.90;;;;;;4981431;28;20050;-67
2021/12/06 08:03:23;;;;;;;11.93;7.80;;;4.20;99.90;;;;;;4981071;28;20324;-68
2021/12/06 08:05:52;;;;;;;10.48;7.55;;;4.20;99.90;;;;;;4981648;28;20014;-67
2021/12/06 08:08:27;;;;;;;14.07;8.85;;;4.20;99.90;;;;;;4981028;28;20019;-68
2021/12/06 08:10:57;;;;;;;15.65;9.35;;;4.20;99.90;;;;;;4981419;28;20053;-67
2021/12/06 08:13:26;;;;;;;16.27;9.07;;;4.30;99.90;;;;;;4963570;28;20022;-67
2021/12/06 08:15:56;;;;;;;14.20;8.50;;;4.30;99.90;;;;;;4981008;28;20098;-67
2021/12/06 08:18:22;;;;;;;12.57;8.18;;;4.30;99.90;;;;;;4960166;28;20023;-68
2021/12/06 08:21:07;;;;;;;14.68;8.95;;;4.30;99.90;;;;;;4947415;28;20058;-70
2021/12/06 08:23:34;;;;;;;13.23;8.82;;;4.30;99.90;;;;;;4963429;28;20023;-69
2021/12/06 08:26:02;;;;;;;12.90;8.93;;;4.30;99.90;;;;;;4980353;28;20026;-69
2021/12/06 08:28:29;;;;;;;17.40;8.93;;;4.40;99.90;;;;;;4979646;28;20074;-70
2021/12/06 08:30:55;;;;;;;13.43;8.18;;;4.40;99.90;;;;;;4980091;28;20094;-72
2021/12/06 08:33:21;;;;;;;18.83;8.70;;;4.40;99.90;;;;;;4961937;28;20112;-77
2021/12/06 08:35:52;;;;;;;16.27;8.10;;;4.40;99.90;;;;;;4962440;28;20018;-74
2021/12/06 08:38:20;;;;;;;19.38;13.10;;;4.40;99.90;;;;;;4980239;28;20318;-75
2021/12/06 08:40:46;;;;;;;17.02;9.52;;;4.40;99.90;;;;;;4980455;28;20026;-74
2021/12/06 08:43:16;;;;;;;15.07;8.85;;;4.50;99.90;;;;;;4962378;28;20030;-75
2021/12/06 08:46:07;;;;;;;12.48;8.38;;;4.50;99.90;;;;;;4963063;28;20028;-73
2021/12/06 08:48:34;;;;;;;15.98;8.82;;;4.50;99.90;;;;;;4963168;28;20283;-73
2021/12/06 08:51:05;;;;;;;12.88;9.18;;;4.60;99.90;;;;;;4963244;28;20070;-73
2021/12/06 08:53:31;;;;;;;12.15;8.30;;;4.60;99.90;;;;;;4961948;28;20054;-71
2021/12/06 08:55:57;;;;;;;13.82;9.02;;;4.70;99.90;;;;;;4961783;28;20054;-72
2021/12/06 08:58:23;;;;;;;14.63;8.32;;;4.80;99.90;;;;;;4962347;28;20301;-71
2021/12/06 09:00:49;;;;;;;12.43;8.15;;;4.70;99.90;;;;;;4962659;28;20026;-72
2021/12/06 09:03:15;;;;;;;13.43;8.02;;;4.70;99.90;;;;;;4965117;28;20094;-74
2021/12/06 09:05:47;;;;;;;13.93;8.35;;;4.70;99.90;;;;;;4962653;28;20119;-74
2021/12/06 09:08:13;;;;;;;14.07;7.93;;;4.80;99.90;;;;;;4962379;28;20018;-72
2021/12/06 09:10:39;;;;;;;14.27;8.05;;;4.80;99.90;;;;;;4962366;28;20079;-72
2021/12/06 09:13:06;;;;;;;13.25;8.07;;;4.80;99.90;;;;;;4979820;28;20127;-73
2021/12/06 09:15:32;;;;;;;19.83;8.55;;;4.80;99.90;;;;;;4962075;28;20065;-71
2021/12/06 09:17:59;;;;;;;12.50;8.60;;;4.80;99.90;;;;;;4979567;28;20022;-71
2021/12/06 09:20:35;;;;;;;14.68;8.52;;;4.90;99.90;;;;;;4979500;28;20038;-74
2021/12/06 09:23:02;;;;;;;16.17;8.65;;;4.90;99.90;;;;;;4979987;28;20019;-74
2021/12/06 09:25:29;;;;;;;15.80;8.82;;;4.90;99.90;;;;;;4979665;28;20018;-77
2021/12/06 09:27:55;;;;;;;29.40;11.02;;;4.90;99.90;;;;;;4962669;28;20310;-72
2021/12/06 09:30:24;;;;;;;20.25;10.88;;;5.00;99.90;;;;;;4961922;28;20023;-72
2021/12/06 09:32:50;;;;;;;15.13;8.95;;;5.00;99.90;;;;;;4962767;28;20023;-71
2021/12/06 09:35:22;;;;;;;22.77;9.98;;;5.00;99.90;;;;;;4962488;28;20026;-73
2021/12/06 09:37:48;;;;;;;18.15;9.48;;;5.10;99.90;;;;;;4980017;28;20150;-72
2021/12/06 09:40:15;;;;;;;24.90;9.82;;;5.10;99.90;;;;;;4962240;28;20041;-72
2021/12/06 09:42:43;;;;;;;23.77;9.77;;;5.10;99.90;;;;;;4979702;28;20054;-72
2021/12/06 09:45:12;;;;;;;16.93;9.10;;;5.20;99.90;;;;;;4979837;28;20026;-72
2021/12/06 09:47:38;;;;;;;17.50;10.40;;;5.20;99.90;;;;;;4961949;28;20266;-74
2021/12/06 09:50:06;;;;;;;20.50;9.18;;;5.30;99.90;;;;;;4979337;28;20019;-71
2021/12/06 09:52:32;;;;;;;25.57;10.00;;;5.40;99.90;;;;;;4978565;28;20341;-72
2021/12/06 09:54:58;;;;;;;14.93;8.35;;;5.40;99.90;;;;;;4979957;28;20281;-74
2021/12/06 09:57:24;;;;;;;19.45;9.05;;;5.50;99.90;;;;;;4961739;28;20019;-72
2021/12/06 09:59:50;;;;;;;22.13;8.88;;;5.50;99.90;;;;;;4962240;28;20058;-72
2021/12/06 10:02:19;;;;;;;16.60;9.23;;;5.60;99.90;;;;;;4961426;28;20019;-72
2021/12/06 10:04:50;;;;;;;18.08;8.60;;;5.70;99.90;;;;;;4979488;28;20249;-72
2021/12/06 10:07:17;;;;;;;17.90;8.75;;;5.60;99.90;;;;;;4962115;28;20066;-73
2021/12/06 10:09:44;;;;;;;18.42;9.95;;;5.70;99.90;;;;;;4964202;28;20298;-72
2021/12/06 10:12:13;;;;;;;16.13;9.40;;;5.70;99.90;;;;;;4965879;28;20027;-72
2021/12/06 10:14:38;;;;;;;;;;;5.70;99.90;;;;;;4983889;28;20049;-72
2021/12/06 10:17:08;;;;;;;16.50;8.77;;;5.70;99.90;;;;;;4965532;28;19902;-73
2021/12/06 10:19:34;;;;;;;20.52;9.85;;;5.70;99.90;;;;;;4965128;28;20273;-73
2021/12/06 10:22:00;;;;;;;16.05;9.32;;;5.70;99.90;;;;;;4982840;28;20195;-73
2021/12/06 10:24:46;;;;;;;18.30;10.52;;;5.70;99.90;;;;;;4964979;28;20090;-72
2021/12/06 10:27:14;;;;;;;13.55;8.00;;;5.60;99.90;;;;;;4965559;28;20023;-75
2021/12/06 10:29:49;;;;;;;15.95;8.63;;;5.60;99.90;;;;;;4965543;28;20335;-74
2021/12/06 10:32:19;;;;;;;18.15;9.32;;;5.50;99.90;;;;;;4982811;28;20042;-75
2021/12/06 10:35:02;;;;;;;14.60;9.00;;;5.50;99.90;;;;;;4965428;28;20026;-74
2021/12/06 10:37:34;;;;;;;18.67;10.52;;;5.50;99.90;;;;;;4982047;28;20310;-72
2021/12/06 10:40:01;;;;;;;22.65;10.90;;;5.50;99.90;;;;;;4982418;28;20025;-72
2021/12/06 10:42:39;;;;;;;17.38;10.15;;;5.50;99.90;;;;;;4964505;28;20130;-72
2021/12/06 10:45:15;;;;;;;36.50;18.27;;;5.50;99.90;;;;;;4964983;28;20018;-73
2021/12/06 10:47:41;;;;;;;25.65;11.65;;;5.50;99.90;;;;;;4982236;28;20306;-77
2021/12/06 10:50:14;;;;;;;17.17;9.48;;;5.50;99.90;;;;;;4965281;28;20035;-74
2021/12/06 10:52:52;;;;;;;15.00;9.13;;;5.50;99.90;;;;;;4961001;28;20389;-74
2021/12/06 10:55:19;;;;;;;20.67;10.40;;;5.50;99.90;;;;;;4981398;28;20172;-73
2021/12/06 10:57:54;;;;;;;16.83;10.07;;;5.40;99.90;;;;;;4965031;28;20038;-74
2021/12/06 11:00:34;;;;;;;17.48;8.82;;;5.40;99.90;;;;;;4964765;28;20031;-74
2021/12/06 11:03:01;;;;;;;12.15;8.88;;;5.40;99.90;;;;;;4982779;28;20254;-74
2021/12/06 11:05:30;;;;;;;18.48;9.95;;;5.40;99.90;;;;;;4964689;28;20018;-74
2021/12/06 11:08:09;;;;;;;14.77;8.93;;;5.40;99.90;;;;;;4982684;28;20026;-74
2021/12/06 11:10:48;;;;;;;17.45;10.13;;;5.30;99.90;;;;;;4964792;28;20066;-74
2021/12/06 11:13:24;;;;;;;17.10;10.18;;;5.30;99.90;;;;;;4982226;28;20029;-73
2021/12/06 11:16:08;;;;;;;14.73;9.70;;;5.30;99.90;;;;;;4965054;28;20050;-73
2021/12/06 11:18:35;;;;;;;18.92;10.15;;;5.30;99.90;;;;;;4958650;28;20255;-72
2021/12/06 11:21:03;;;;;;;17.17;9.77;;;5.30;99.90;;;;;;4964036;28;20034;-74
2021/12/06 11:23:29;;;;;;;21.08;10.43;;;5.30;99.90;;;;;;4965092;28;20022;-74
2021/12/06 11:25:57;;;;;;;19.17;10.90;;;5.30;99.90;;;;;;4982776;28;20022;-76
2021/12/06 11:28:29;;;;;;;16.08;9.85;;;5.30;99.90;;;;;;4982595;28;20027;-75
2021/12/06 11:31:04;;;;;;;14.20;9.85;;;5.20;99.90;;;;;;4982335;28;20049;-74
2021/12/06 11:33:33;;;;;;;14.63;9.43;;;5.30;99.90;;;;;;4964438;28;20362;-73
2021/12/06 11:36:00;;;;;;;;;;;5.30;99.90;;;;;;4982414;28;20022;-73
2021/12/06 11:38:30;;;;;;;18.15;10.00;;;5.30;99.90;;;;;;4964327;28;19906;-73
2021/12/06 11:40:58;;;;;;;18.52;9.30;;;5.20;99.90;;;;;;4964833;28;20293;-73
2021/12/06 11:43:25;;;;;;;15.32;9.32;;;5.20;99.90;;;;;;4964483;28;20018;-73
2021/12/06 11:45:57;;;;;;;16.65;10.07;;;5.20;99.90;;;;;;4964823;28;20292;-73
2021/12/06 11:48:30;;;;;;;18.88;10.50;;;5.20;99.90;;;;;;4964255;28;20047;-73
2021/12/06 11:51:12;;;;;;;16.83;10.65;;;5.30;99.90;;;;;;4981668;28;20090;-72
2021/12/06 11:53:44;;;;;;;20.58;10.02;;;5.30;99.90;;;;;;4964504;28;20046;-71
2021/12/06 11:56:22;;;;;;;20.08;10.57;;;5.30;99.90;;;;;;4981973;28;20050;-71
2021/12/06 11:58:51;;;;;;;16.05;9.15;;;5.30;99.90;;;;;;4981838;28;20018;-72
2021/12/06 12:01:27;;;;;;;18.80;9.43;;;5.30;99.90;;;;;;4963722;28;20098;-72
2021/12/06 12:04:06;;;;;;;15.40;10.50;;;5.40;99.90;;;;;;4981782;28;20113;-71
2021/12/06 12:06:40;;;;;;;16.45;8.52;;;5.40;99.90;;;;;;4980399;28;20181;-71
2021/12/06 12:09:17;;;;;;;20.95;9.98;;;5.50;99.90;;;;;;4964092;28;20070;-73
2021/12/06 12:12:20;;;;;;;16.52;8.45;;;5.60;99.90;;;;;;4964069;28;20338;-72
2021/12/06 12:14:54;;;;;;;14.60;7.88;;;5.60;99.90;;;;;;4981494;28;20018;-73
2021/12/06 12:17:27;;;;;;;12.95;7.30;;;5.80;99.90;;;;;;4980983;28;20018;-72
2021/12/06 12:19:55;;;;;;;12.73;8.10;;;6.00;99.90;;;;;;4963687;28;20094;-71
2021/12/06 12:22:22;;;;;;;17.08;9.07;;;5.90;99.90;;;;;;4963108;28;20026;-71
2021/12/06 12:24:52;;;;;;;14.20;7.70;;;5.90;99.90;;;;;;4981206;28;20027;-73
2021/12/06 12:29:56;;;;;;;22.08;8.95;;;6.00;99.90;;;;;;4980900;28;20022;-71
2021/12/06 12:32:22;;;;;;;11.13;7.30;;;5.90;99.90;;;;;;4962831;28;20148;-72
2021/12/06 12:34:51;;;;;;;10.18;6.80;;;5.90;99.90;;;;;;4962851;28;20077;-74
2021/12/06 12:37:18;;;;;;;;;;;6.00;99.90;;;;;;4980532;28;20099;-74
2021/12/06 12:40:06;;;;;;;13.43;6.32;;;5.80;99.90;;;;;;4963233;28;20208;-72
2021/12/06 12:42:32;;;;;;;;;;;5.80;99.90;;;;;;4977500;28;20031;-69
2021/12/06 12:44:59;;;;;;;11.25;6.07;;;5.80;99.90;;;;;;4975816;28;19953;-75
2021/12/06 12:47:31;;;;;;;12.88;6.05;;;5.80;99.90;;;;;;4975255;28;20014;-71
2021/12/06 12:50:00;;;;;;;10.77;6.40;;;5.80;99.90;;;;;;4975779;28;20018;-72
2021/12/06 12:52:38;;;;;;;10.63;5.78;;;5.90;99.90;;;;;;4957933;28;20050;-70
2021/12/06 12:55:28;;;;;;;10.65;5.50;;;6.00;99.90;;;;;;4973772;28;20027;-71
2021/12/06 12:58:09;;;;;;;10.95;6.03;;;6.00;99.90;;;;;;4960369;28;20082;-70
2021/12/06 13:00:46;;;;;;;11.35;6.28;;;6.00;99.90;;;;;;4961827;28;20031;-70
2021/12/06 13:03:43;;;;;;;12.05;7.88;;;6.00;99.90;;;;;;4980298;28;20023;-70
2021/12/06 13:06:20;;;;;;;12.05;6.75;;;6.00;99.90;;;;;;4979510;28;20011;-73
2021/12/06 13:08:47;;;;;;;11.13;5.95;;;5.90;99.90;;;;;;4979463;28;20029;-70
2021/12/06 13:11:13;;;;;;;17.17;6.85;;;6.10;99.90;;;;;;4980057;28;20022;-69
2021/12/06 13:13:46;;;;;;;12.15;6.63;;;6.10;99.90;;;;;;4962092;28;20035;-70
2021/12/06 13:16:56;;;;;;;14.73;6.45;;;6.00;99.90;;;;;;4962837;28;20310;-69
2021/12/06 13:22:13;;;;;;;12.40;6.13;;;5.90;99.90;;;;;;4980054;28;20035;-72
2021/12/06 13:24:40;;;;;;;9.43;5.65;;;6.00;99.90;;;;;;4979704;28;20018;-72